Time;durP1;ratioP1;P1;durP2;ratioP2;P2;SDS_P1;SDS_P2;PMS_P1;PMS_P2;Temp;Humidity;BMP_temperature;BMP_pressure;BME280_temperature;BME280_humidity;BME280_pressure;Samples;Min_cycle;Max_cycle;Signal;HPM_P1;HPM_P2
2021/05/19 00:01:27;;;;;;;11.73;10.50;;;11.50;99.90;;;;;;4996564;28;20167;-76
2021/05/19 00:03:52;;;;;;;11.37;10.07;;;11.30;99.90;;;;;;4996680;28;20178;-76
2021/05/19 00:06:18;;;;;;;12.70;10.27;;;11.20;99.90;;;;;;4996465;28;20183;-78
2021/05/19 00:08:43;;;;;;;11.47;8.97;;;11.10;99.90;;;;;;4996821;28;20659;-77
2021/05/19 00:11:09;;;;;;;12.33;9.10;;;11.10;99.90;;;;;;4996401;28;20655;-78
2021/05/19 00:13:36;;;;;;;11.57;9.07;;;11.10;99.90;;;;;;4996853;28;20220;-78
2021/05/19 00:16:04;;;;;;;12.63;9.20;;;11.10;99.90;;;;;;4996597;28;20594;-77
2021/05/19 00:18:30;;;;;;;10.90;9.37;;;11.00;99.90;;;;;;4996684;28;20205;-78
2021/05/19 00:20:55;;;;;;;12.73;8.33;;;11.10;99.90;;;;;;4996606;28;20210;-77
2021/05/19 00:23:21;;;;;;;13.47;9.27;;;11.10;99.90;;;;;;4996565;28;20607;-78
2021/05/19 00:25:47;;;;;;;9.83;8.67;;;11.20;99.90;;;;;;4994499;28;20245;-78
2021/05/19 00:28:13;;;;;;;12.30;8.73;;;11.10;99.90;;;;;;4995212;28;20675;-77
2021/05/19 00:30:39;;;;;;;12.97;8.50;;;11.10;99.90;;;;;;4996310;28;20361;-78
2021/05/19 00:33:05;;;;;;;11.03;8.57;;;11.10;99.80;;;;;;4996254;28;20497;-77
2021/05/19 00:35:31;;;;;;;8.23;7.13;;;11.20;99.90;;;;;;4996339;28;20178;-78
2021/05/19 00:37:57;;;;;;;9.67;7.37;;;11.10;99.90;;;;;;4996296;28;20175;-77
2021/05/19 00:40:22;;;;;;;10.77;7.27;;;11.10;99.40;;;;;;4995945;28;20214;-77
2021/05/19 00:42:48;;;;;;;9.60;6.67;;;11.00;99.60;;;;;;4996317;28;20183;-76
2021/05/19 00:45:14;;;;;;;11.97;6.97;;;10.90;99.60;;;;;;4996062;28;20868;-77
2021/05/19 00:47:42;;;;;;;9.97;6.50;;;10.90;99.50;;;;;;4996166;28;20589;-77
2021/05/19 00:50:11;;;;;;;10.70;6.80;;;10.80;99.50;;;;;;4996068;28;20206;-77
2021/05/19 00:52:37;;;;;;;11.20;5.63;;;10.70;99.90;;;;;;4995915;28;20213;-77
2021/05/19 00:55:04;;;;;;;9.37;5.60;;;10.70;99.90;;;;;;4995695;28;20166;-76
2021/05/19 00:57:30;;;;;;;8.70;6.00;;;10.70;99.90;;;;;;4995776;28;20171;-76
2021/05/19 00:59:56;;;;;;;9.43;5.50;;;10.60;99.80;;;;;;4995838;28;20174;-77
2021/05/19 01:02:22;;;;;;;12.40;5.33;;;10.50;99.90;;;;;;4995807;28;20183;-77
2021/05/19 01:04:48;;;;;;;8.17;5.37;;;10.50;99.90;;;;;;4995812;28;20655;-77
2021/05/19 01:07:24;;;;;;;10.07;5.47;;;10.50;99.90;;;;;;4995611;28;20167;-77
2021/05/19 01:09:50;;;;;;;11.13;5.53;;;10.50;99.90;;;;;;4995635;28;20655;-77
2021/05/19 01:12:21;;;;;;;10.47;5.50;;;10.50;99.90;;;;;;4995460;28;20179;-76
2021/05/19 01:14:48;;;;;;;8.60;5.10;;;10.60;99.70;;;;;;4995785;28;20253;-77
2021/05/19 01:17:15;;;;;;;10.10;5.53;;;10.60;99.10;;;;;;4995430;28;20175;-76
2021/05/19 01:19:45;;;;;;;10.60;5.07;;;10.60;99.40;;;;;;4995593;28;20167;-78
2021/05/19 01:22:22;;;;;;;9.67;5.33;;;10.50;99.60;;;;;;4994811;28;20163;-78
2021/05/19 01:24:49;;;;;;;11.63;5.10;;;10.40;99.70;;;;;;4995378;28;20178;-77
2021/05/19 01:27:15;;;;;;;14.33;5.20;;;10.40;99.90;;;;;;4995223;28;20215;-76
2021/05/19 01:29:40;;;;;;;11.03;5.90;;;10.40;99.90;;;;;;4995354;28;20245;-77
2021/05/19 01:32:06;;;;;;;15.80;6.13;;;10.40;99.90;;;;;;4995256;28;20171;-78
2021/05/19 01:34:33;;;;;;;11.40;5.17;;;10.30;99.90;;;;;;4995175;28;20726;-78
2021/05/19 01:36:58;;;;;;;14.70;5.43;;;10.20;99.90;;;;;;4995086;28;20178;-77
2021/05/19 01:39:24;;;;;;;9.83;5.50;;;10.20;99.90;;;;;;4993665;28;20183;-76
2021/05/19 01:41:50;;;;;;;12.23;4.93;;;10.30;99.90;;;;;;4995082;28;20182;-76
2021/05/19 01:44:18;;;;;;;11.33;5.20;;;10.20;99.90;;;;;;4995033;28;20190;-78
2021/05/19 01:46:44;;;;;;;16.27;6.13;;;10.20;99.90;;;;;;4995194;28;20171;-76
2021/05/19 01:49:13;;;;;;;9.37;4.80;;;10.20;99.90;;;;;;4994946;28;20187;-78
2021/05/19 01:51:39;;;;;;;11.47;4.80;;;10.10;99.90;;;;;;4994668;28;20225;-78
2021/05/19 01:54:07;;;;;;;10.43;4.47;;;10.10;99.90;;;;;;4994840;28;20174;-77
2021/05/19 01:56:39;;;;;;;15.37;5.10;;;10.00;99.90;;;;;;4993475;28;20195;-77
2021/05/19 01:59:06;;;;;;;9.57;4.63;;;9.90;99.90;;;;;;4993534;28;20663;-76
2021/05/19 02:01:33;;;;;;;9.90;5.10;;;10.00;99.90;;;;;;4994685;28;20176;-77
2021/05/19 02:04:25;;;;;;;11.23;4.73;;;10.00;99.90;;;;;;4994656;28;20207;-76
2021/05/19 02:06:57;;;;;;;10.60;4.33;;;10.10;99.90;;;;;;4993381;28;20190;-77
2021/05/19 02:09:24;;;;;;;9.30;4.53;;;10.00;99.90;;;;;;4993851;28;20273;-77
2021/05/19 02:11:50;;;;;;;9.70;4.83;;;10.00;99.90;;;;;;4994702;28;20175;-77
2021/05/19 02:14:17;;;;;;;8.93;4.47;;;10.00;99.90;;;;;;4994409;28;20175;-76
2021/05/19 02:16:43;;;;;;;10.83;4.50;;;9.90;99.90;;;;;;4994613;28;20168;-77
2021/05/19 02:19:13;;;;;;;11.17;4.70;;;10.00;99.90;;;;;;4993102;28;20658;-78
2021/05/19 02:21:44;;;;;;;13.43;5.07;;;10.10;99.90;;;;;;4994185;28;20179;-76
2021/05/19 02:24:11;;;;;;;11.73;5.10;;;10.10;99.90;;;;;;4992846;28;20182;-75
2021/05/19 02:26:37;;;;;;;11.03;4.50;;;10.10;99.90;;;;;;4994189;28;20186;-76
2021/05/19 02:29:04;;;;;;;13.20;5.07;;;10.00;99.90;;;;;;4994192;28;20654;-77
2021/05/19 02:31:29;;;;;;;7.87;4.10;;;10.00;99.90;;;;;;4994054;28;20677;-77
2021/05/19 02:33:55;;;;;;;11.73;4.70;;;10.00;99.90;;;;;;4994157;28;20171;-80
2021/05/19 02:36:21;;;;;;;10.87;4.60;;;9.90;99.90;;;;;;4992690;28;20706;-77
2021/05/19 02:38:46;;;;;;;9.70;4.60;;;9.90;99.90;;;;;;4993776;28;20167;-77
2021/05/19 02:41:12;;;;;;;11.50;4.70;;;10.00;99.90;;;;;;4994105;28;20259;-76
2021/05/19 02:43:38;;;;;;;10.67;4.17;;;10.00;99.90;;;;;;4992497;28;20412;-77
2021/05/19 02:46:03;;;;;;;11.20;4.83;;;10.00;99.90;;;;;;4993782;28;20179;-78
2021/05/19 02:48:29;;;;;;;9.50;4.93;;;10.10;99.90;;;;;;4993881;28;20171;-77
2021/05/19 02:50:55;;;;;;;9.77;4.57;;;10.00;99.90;;;;;;4992343;28;20305;-78
2021/05/19 02:53:20;;;;;;;10.67;5.20;;;10.10;99.90;;;;;;4992457;28;20282;-77
2021/05/19 02:55:46;;;;;;;9.97;4.77;;;10.00;99.90;;;;;;4992398;28;20190;-77
2021/05/19 02:58:12;;;;;;;11.07;5.07;;;10.00;99.70;;;;;;4993652;28;20171;-77
2021/05/19 03:00:37;;;;;;;9.20;4.73;;;10.00;99.50;;;;;;4993660;28;20171;-79
2021/05/19 03:03:04;;;;;;;14.40;5.10;;;9.90;99.60;;;;;;4993843;28;20191;-77
2021/05/19 03:05:29;;;;;;;13.77;5.37;;;9.90;99.90;;;;;;4993213;28;20182;-76
2021/05/19 03:07:56;;;;;;;9.83;5.27;;;10.00;99.60;;;;;;4993825;28;20163;-76
2021/05/19 03:10:21;;;;;;;11.27;4.97;;;10.00;99.20;;;;;;4993398;28;20206;-76
2021/05/19 03:12:50;;;;;;;10.87;5.00;;;10.00;99.30;;;;;;4992498;28;20546;-76
2021/05/19 03:15:16;;;;;;;9.83;4.87;;;10.00;99.10;;;;;;4993507;28;20174;-77
2021/05/19 03:17:42;;;;;;;12.70;5.27;;;9.90;99.70;;;;;;4993605;28;20175;-76
2021/05/19 03:20:08;;;;;;;10.53;5.23;;;9.90;99.80;;;;;;4993214;28;20241;-76
2021/05/19 03:22:34;;;;;;;10.77;4.83;;;9.90;99.70;;;;;;4996627;28;20171;-77
2021/05/19 03:25:00;;;;;;;12.77;4.60;;;10.00;99.30;;;;;;4997263;28;20686;-76
2021/05/19 03:27:25;;;;;;;14.57;5.03;;;10.00;98.70;;;;;;4997475;28;20277;-76
2021/05/19 03:29:51;;;;;;;9.40;4.47;;;10.00;98.40;;;;;;4997408;28;20205;-77
2021/05/19 03:32:16;;;;;;;11.37;4.57;;;10.00;98.80;;;;;;4997376;28;20175;-76
2021/05/19 03:34:42;;;;;;;8.53;4.30;;;10.00;98.90;;;;;;4997455;28;20167;-76
2021/05/19 03:37:08;;;;;;;9.50;5.23;;;10.00;98.90;;;;;;4997451;28;20210;-76
2021/05/19 03:39:33;;;;;;;8.17;4.90;;;9.80;99.40;;;;;;4997394;28;20175;-76
2021/05/19 03:41:59;;;;;;;12.87;4.50;;;9.80;99.90;;;;;;4997269;28;20182;-77
2021/05/19 03:44:25;;;;;;;10.10;4.90;;;9.90;99.90;;;;;;4997252;28;20758;-77
2021/05/19 03:46:50;;;;;;;13.17;4.37;;;10.20;98.80;;;;;;4996906;28;20170;-76
2021/05/19 03:49:16;;;;;;;8.33;4.10;;;10.10;98.40;;;;;;4996964;28;20167;-76
2021/05/19 03:51:43;;;;;;;14.57;5.00;;;10.10;98.00;;;;;;4996851;28;20293;-76
2021/05/19 03:54:09;;;;;;;11.07;4.50;;;10.00;98.50;;;;;;4997035;28;20269;-77
2021/05/19 03:56:34;;;;;;;8.80;4.73;;;9.90;99.30;;;;;;4995649;28;20655;-77
2021/05/19 03:59:00;;;;;;;11.00;4.70;;;9.80;99.90;;;;;;4996841;28;20643;-77
2021/05/19 04:01:25;;;;;;;14.00;5.03;;;9.80;99.90;;;;;;4995272;28;20632;-77
2021/05/19 04:03:51;;;;;;;12.53;4.83;;;9.80;99.90;;;;;;4996849;28;20520;-76
2021/05/19 04:06:24;;;;;;;12.60;3.93;;;9.70;99.90;;;;;;4996778;28;20229;-76
2021/05/19 04:08:49;;;;;;;9.20;3.83;;;9.80;99.90;;;;;;4996487;28;20186;-77
2021/05/19 04:11:15;;;;;;;9.47;3.93;;;10.00;99.90;;;;;;4996617;28;20664;-77
2021/05/19 04:13:41;;;;;;;11.03;4.13;;;10.00;99.50;;;;;;4996665;28;20167;-77
2021/05/19 04:16:08;;;;;;;9.40;3.90;;;9.90;99.70;;;;;;4996415;28;20175;-77
2021/05/19 04:18:33;;;;;;;9.77;4.27;;;10.00;99.60;;;;;;4995209;28;20171;-77
2021/05/19 04:20:59;;;;;;;7.37;3.50;;;10.00;99.20;;;;;;4995743;28;20519;-77
2021/05/19 04:23:26;;;;;;;12.90;4.07;;;10.00;99.60;;;;;;4996641;28;20171;-78
2021/05/19 04:25:55;;;;;;;11.10;3.80;;;10.00;99.60;;;;;;4995864;28;20647;-77
2021/05/19 04:28:22;;;;;;;7.93;3.53;;;10.10;99.70;;;;;;4996090;28;20596;-77
2021/05/19 04:30:48;;;;;;;10.47;3.63;;;10.30;98.90;;;;;;4995924;28;20622;-77
2021/05/19 04:33:15;;;;;;;16.00;4.30;;;10.50;97.60;;;;;;4995465;28;20167;-76
2021/05/19 04:35:42;;;;;;;13.00;4.00;;;10.50;96.90;;;;;;4996411;28;20171;-77
2021/05/19 04:38:08;;;;;;;9.97;3.83;;;10.60;96.30;;;;;;4996342;28;20175;-78
2021/05/19 04:40:33;;;;;;;8.07;3.80;;;10.50;96.10;;;;;;4997541;28;20540;-78
2021/05/19 04:43:04;;;;;;;9.37;3.23;;;10.40;96.50;;;;;;4997196;28;20171;-77
2021/05/19 04:45:30;;;;;;;10.60;3.80;;;10.50;96.00;;;;;;4995587;28;20175;-77
2021/05/19 04:47:55;;;;;;;12.67;3.83;;;10.40;96.60;;;;;;4995220;28;20184;-76
2021/05/19 04:50:21;;;;;;;8.47;3.80;;;10.30;97.30;;;;;;4995153;28;20535;-78
2021/05/19 04:52:47;;;;;;;13.13;3.97;;;10.20;97.80;;;;;;4995016;28;20257;-77
2021/05/19 04:55:13;;;;;;;9.80;3.43;;;10.40;97.80;;;;;;4994961;28;20221;-77
2021/05/19 04:57:39;;;;;;;16.47;4.17;;;10.30;97.20;;;;;;4994819;28;20253;-76
2021/05/19 05:00:07;;;;;;;10.07;3.83;;;10.20;97.60;;;;;;4995048;28;20171;-78
2021/05/19 05:02:32;;;;;;;10.33;4.27;;;10.20;98.00;;;;;;4995001;28;20663;-77
2021/05/19 05:04:58;;;;;;;10.90;3.63;;;10.20;97.90;;;;;;4994761;28;20202;-77
2021/05/19 05:07:25;;;;;;;9.70;3.60;;;10.40;97.20;;;;;;4994324;28;20647;-76
2021/05/19 05:09:50;;;;;;;8.07;3.43;;;10.40;97.00;;;;;;4993424;28;20238;-78
2021/05/19 05:12:16;;;;;;;11.27;3.83;;;10.60;96.60;;;;;;4994774;28;20171;-78
2021/05/19 05:14:42;;;;;;;8.53;3.57;;;10.70;96.60;;;;;;4994532;28;20179;-77
2021/05/19 05:17:07;;;;;;;11.47;4.00;;;10.80;95.90;;;;;;4994802;28;20510;-77
2021/05/19 05:19:34;;;;;;;10.60;3.80;;;10.80;94.80;;;;;;4993224;28;20186;-78
2021/05/19 05:21:59;;;;;;;13.47;3.80;;;10.70;96.20;;;;;;4994496;28;20689;-77
2021/05/19 05:24:25;;;;;;;10.97;3.20;;;10.90;96.20;;;;;;4994654;28;20175;-77
2021/05/19 05:26:51;;;;;;;11.07;3.40;;;10.70;96.30;;;;;;4994355;28;20233;-77
2021/05/19 05:29:16;;;;;;;7.87;3.40;;;10.70;96.40;;;;;;4993972;28;20636;-77
2021/05/19 05:31:42;;;;;;;11.83;3.83;;;10.70;96.80;;;;;;4993731;28;20225;-78
2021/05/19 05:34:08;;;;;;;13.20;3.63;;;10.80;96.00;;;;;;4993337;28;20560;-78
2021/05/19 05:36:33;;;;;;;10.67;3.93;;;10.70;96.00;;;;;;4994072;28;20179;-76
2021/05/19 05:38:59;;;;;;;9.33;3.27;;;10.60;96.30;;;;;;4993613;28;20217;-77
2021/05/19 05:41:25;;;;;;;7.50;2.80;;;10.60;96.40;;;;;;4993319;28;20178;-77
2021/05/19 05:43:50;;;;;;;13.27;4.90;;;10.50;96.60;;;;;;4992542;28;20631;-79
2021/05/19 05:46:16;;;;;;;8.50;2.80;;;10.50;96.60;;;;;;4993683;28;20249;-78
2021/05/19 05:48:42;;;;;;;6.80;2.83;;;10.60;96.90;;;;;;4993912;28;20250;-77
2021/05/19 05:51:08;;;;;;;10.00;3.70;;;10.70;96.70;;;;;;4993716;28;20226;-77
2021/05/19 05:53:34;;;;;;;13.07;2.90;;;10.80;96.40;;;;;;4993431;28;20229;-78
2021/05/19 05:55:59;;;;;;;12.63;2.80;;;10.90;96.00;;;;;;4993209;28;20238;-77
2021/05/19 05:58:25;;;;;;;11.20;3.13;;;11.00;95.60;;;;;;4993216;28;20167;-78
2021/05/19 06:00:51;;;;;;;11.57;2.97;;;11.20;94.40;;;;;;4993685;28;20179;-78
2021/05/19 06:03:17;;;;;;;7.17;2.87;;;11.30;94.10;;;;;;4993220;28;20241;-79
2021/05/19 06:05:43;;;;;;;7.27;2.80;;;11.40;92.80;;;;;;4993440;28;20175;-78
2021/05/19 06:08:09;;;;;;;9.27;3.00;;;11.40;92.90;;;;;;4993290;28;20202;-77
2021/05/19 06:10:34;;;;;;;12.57;5.07;;;11.30;93.40;;;;;;4993711;28;20301;-78
2021/05/19 06:13:00;;;;;;;11.43;4.00;;;11.40;93.80;;;;;;4993018;28;20237;-78
2021/05/19 06:15:26;;;;;;;8.27;2.83;;;11.40;93.60;;;;;;4992890;28;20178;-78
2021/05/19 06:17:52;;;;;;;9.90;3.30;;;11.50;92.90;;;;;;4993071;28;20177;-80
2021/05/19 06:20:18;;;;;;;7.60;2.80;;;11.60;92.70;;;;;;4993423;28;20167;-79
2021/05/19 06:22:43;;;;;;;10.23;3.57;;;11.70;92.40;;;;;;4993377;28;20186;-78
2021/05/19 06:25:11;;;;;;;9.33;2.63;;;11.80;91.70;;;;;;4991948;28;20673;-78
2021/05/19 06:27:38;;;;;;;9.33;2.87;;;11.70;92.00;;;;;;4991723;28;20179;-79
2021/05/19 06:30:04;;;;;;;9.00;3.17;;;11.70;91.80;;;;;;4992809;28;20194;-77
2021/05/19 06:32:30;;;;;;;7.07;2.50;;;11.70;91.80;;;;;;4992964;28;20206;-76
2021/05/19 06:34:57;;;;;;;14.37;3.40;;;11.70;92.20;;;;;;4994349;28;20290;-76
2021/05/19 06:37:22;;;;;;;8.27;3.43;;;11.70;92.30;;;;;;5000962;28;20257;-77
2021/05/19 06:39:49;;;;;;;6.70;2.80;;;11.70;92.20;;;;;;5002297;28;20715;-77
2021/05/19 06:42:14;;;;;;;13.67;3.23;;;11.90;92.00;;;;;;5011772;28;20175;-76
2021/05/19 06:44:40;;;;;;;13.07;3.43;;;11.90;91.70;;;;;;5012378;28;20189;-75
2021/05/19 06:47:05;;;;;;;9.60;3.67;;;12.00;90.80;;;;;;5010148;28;20170;-77
2021/05/19 06:49:31;;;;;;;9.10;3.47;;;12.20;89.70;;;;;;5012266;28;20228;-76
2021/05/19 06:51:57;;;;;;;11.77;3.47;;;12.40;86.80;;;;;;5006267;28;20171;-79
2021/05/19 06:54:23;;;;;;;10.73;3.33;;;12.50;86.20;;;;;;4992780;28;20178;-78
2021/05/19 06:56:49;;;;;;;11.70;3.00;;;12.50;88.30;;;;;;4992353;28;20171;-76
2021/05/19 06:59:17;;;;;;;7.73;3.37;;;12.50;88.50;;;;;;4991959;28;20199;-79
2021/05/19 07:01:43;;;;;;;12.30;2.80;;;12.50;89.20;;;;;;4992595;28;20186;-77
2021/05/19 07:04:09;;;;;;;11.40;2.80;;;12.50;89.70;;;;;;4991592;28;20175;-78
2021/05/19 07:06:35;;;;;;;7.73;2.77;;;12.50;90.70;;;;;;4992840;28;20171;-80
2021/05/19 07:09:02;;;;;;;7.00;3.10;;;12.50;90.60;;;;;;4998177;28;20171;-76
2021/05/19 07:11:28;;;;;;;10.07;2.83;;;12.60;88.70;;;;;;5010948;28;20661;-79
2021/05/19 07:13:56;;;;;;;9.23;3.00;;;12.60;89.70;;;;;;5013517;28;20169;-79
2021/05/19 07:16:24;;;;;;;7.13;2.50;;;12.60;90.80;;;;;;5012910;28;20637;-77
2021/05/19 07:18:53;;;;;;;12.47;3.27;;;12.60;89.00;;;;;;5012297;28;20162;-79
2021/05/19 07:21:19;;;;;;;8.47;2.93;;;12.60;90.30;;;;;;5010999;28;20178;-78
2021/05/19 07:23:45;;;;;;;6.87;3.17;;;12.70;90.10;;;;;;5011829;28;20194;-77
2021/05/19 07:26:10;;;;;;;9.10;2.90;;;12.70;87.30;;;;;;5011483;28;20240;-79
2021/05/19 07:28:36;;;;;;;8.47;2.70;;;12.60;86.80;;;;;;5008375;28;20663;-78
2021/05/19 07:31:02;;;;;;;8.03;2.97;;;12.50;89.00;;;;;;5001128;28;20812;-78
2021/05/19 07:33:28;;;;;;;10.03;3.20;;;12.40;88.60;;;;;;4992904;28;20190;-77
2021/05/19 07:35:53;;;;;;;9.17;3.17;;;12.40;90.20;;;;;;4996602;28;20638;-79
2021/05/19 07:38:19;;;;;;;8.90;3.47;;;12.30;90.60;;;;;;5013057;28;20205;-80
2021/05/19 07:40:45;;;;;;;9.17;2.77;;;12.40;91.70;;;;;;5013216;28;20217;-80
2021/05/19 07:43:11;;;;;;;11.57;3.47;;;12.40;91.70;;;;;;5013226;28;20229;-78
2021/05/19 07:45:37;;;;;;;7.23;2.83;;;12.40;91.60;;;;;;5013091;28;20626;-80
2021/05/19 07:48:03;;;;;;;6.23;3.50;;;12.50;90.40;;;;;;5011257;28;20169;-77
2021/05/19 07:50:29;;;;;;;11.70;3.17;;;12.60;90.10;;;;;;5008767;28;20214;-76
2021/05/19 07:52:56;;;;;;;6.67;3.17;;;12.60;89.00;;;;;;5003152;28;20174;-78
2021/05/19 07:55:26;;;;;;;10.73;3.20;;;12.70;86.70;;;;;;5012145;28;20185;-78
2021/05/19 07:57:59;;;;;;;6.87;3.10;;;12.70;87.70;;;;;;5011418;28;20640;-78
2021/05/19 08:02:56;;;;;;;7.70;2.90;;;12.70;88.20;;;;;;5012276;28;20196;-78
2021/05/19 08:05:22;;;;;;;7.93;3.07;;;12.80;88.60;;;;;;5012451;28;20167;-78
2021/05/19 08:07:47;;;;;;;8.40;2.90;;;12.70;89.50;;;;;;5014612;28;20170;-79
2021/05/19 08:10:13;;;;;;;6.10;2.80;;;12.70;87.40;;;;;;5017148;28;20190;-78
2021/05/19 08:12:39;;;;;;;7.80;2.87;;;12.80;86.40;;;;;;5016434;28;20189;-77
2021/05/19 08:15:06;;;;;;;6.70;2.30;;;12.90;78.90;;;;;;5016834;28;20228;-86
2021/05/19 08:17:32;;;;;;;5.60;2.17;;;13.00;78.10;;;;;;5017960;28;20245;-77
2021/05/19 08:19:57;;;;;;;5.57;2.50;;;13.00;77.90;;;;;;5016567;28;20179;-79
2021/05/19 08:22:23;;;;;;;5.77;2.30;;;12.90;80.70;;;;;;5016884;28;20170;-78
2021/05/19 08:24:49;;;;;;;6.00;2.40;;;12.90;77.10;;;;;;5016931;28;20174;-80
2021/05/19 08:27:15;;;;;;;6.00;2.53;;;13.00;79.60;;;;;;5016811;28;20197;-79
2021/05/19 08:29:42;;;;;;;3.60;1.90;;;13.20;71.70;;;;;;5015002;28;20174;-81
2021/05/19 08:32:08;;;;;;;3.07;1.60;;;13.30;66.30;;;;;;5015581;28;20182;-81
2021/05/19 08:34:35;;;;;;;5.03;2.13;;;13.10;69.90;;;;;;5016876;28;20274;-78
2021/05/19 08:37:00;;;;;;;6.07;2.10;;;12.80;76.10;;;;;;5017713;28;20176;-78
2021/05/19 08:39:26;;;;;;;4.17;1.63;;;12.90;76.70;;;;;;5018691;28;20194;-78
2021/05/19 08:41:52;;;;;;;5.43;1.87;;;12.90;75.40;;;;;;5014166;28;20178;-77
2021/05/19 08:44:19;;;;;;;5.20;2.07;;;12.90;76.50;;;;;;5014237;28;20252;-81
2021/05/19 08:46:52;;;;;;;5.13;2.10;;;13.20;81.80;;;;;;5014762;28;20209;-78
2021/05/19 08:49:18;;;;;;;7.03;2.27;;;13.30;76.20;;;;;;5015668;28;20189;-79
2021/05/19 08:51:44;;;;;;;6.27;2.70;;;13.50;75.90;;;;;;5015122;28;20202;-86
2021/05/19 08:54:10;;;;;;;7.13;1.87;;;13.70;79.40;;;;;;5014993;28;20635;-82
2021/05/19 08:56:42;;;;;;;9.10;2.37;;;13.70;75.20;;;;;;5014684;28;20471;-80
2021/05/19 08:59:07;;;;;;;7.53;2.40;;;13.70;73.60;;;;;;5014554;28;20179;-80
2021/05/19 09:01:44;;;;;;;8.53;2.87;;;13.70;76.90;;;;;;5014000;28;20266;-79
2021/05/19 09:04:22;;;;;;;5.00;2.10;;;13.60;78.30;;;;;;5014415;28;20169;-82
2021/05/19 09:06:59;;;;;;;5.47;2.70;;;13.60;82.40;;;;;;5014947;28;20160;-80
2021/05/19 09:09:27;;;;;;;6.43;2.20;;;13.60;77.40;;;;;;5014384;28;20244;-83
2021/05/19 09:12:05;;;;;;;6.70;2.20;;;13.50;78.90;;;;;;5013935;28;20657;-80
2021/05/19 09:14:39;;;;;;;6.03;2.57;;;13.50;77.80;;;;;;5012273;28;20172;-82
2021/05/19 09:17:25;;;;;;;5.00;2.20;;;13.30;78.60;;;;;;4995380;28;20635;-81
2021/05/19 09:20:06;;;;;;;6.20;2.60;;;13.20;77.00;;;;;;4992947;28;20170;-80
2021/05/19 09:22:35;;;;;;;4.83;2.73;;;13.20;77.90;;;;;;4992649;28;20694;-82
2021/05/19 09:25:02;;;;;;;5.87;2.97;;;13.30;76.60;;;;;;4994104;28;20624;-81
2021/05/19 09:27:42;;;;;;;7.07;2.97;;;13.30;80.80;;;;;;4994451;28;20179;-78
2021/05/19 09:30:08;;;;;;;5.77;3.07;;;13.10;83.00;;;;;;4994046;28;20256;-81
2021/05/19 09:32:39;;;;;;;5.67;2.67;;;13.00;83.70;;;;;;4994478;28;20159;-79
2021/05/19 09:35:10;;;;;;;4.60;2.83;;;13.10;83.80;;;;;;4996237;28;20258;-82
2021/05/19 09:37:36;;;;;;;4.80;2.93;;;13.10;82.10;;;;;;5009725;28;20575;-82
2021/05/19 09:40:08;;;;;;;6.27;2.60;;;13.00;82.90;;;;;;5010793;28;20669;-81
2021/05/19 09:42:36;;;;;;;5.40;2.90;;;13.00;85.10;;;;;;5008092;28;20170;-81
2021/05/19 09:45:32;;;;;;;4.63;2.40;;;13.00;85.20;;;;;;4993137;28;20242;-82
2021/05/19 09:47:59;;;;;;;4.83;2.80;;;13.00;82.50;;;;;;4993962;28;20175;-82
2021/05/19 09:50:33;;;;;;;4.97;2.87;;;13.30;78.70;;;;;;4992585;28;20194;-84
2021/05/19 09:53:08;;;;;;;5.87;3.10;;;13.50;78.10;;;;;;4991122;28;20280;-82
2021/05/19 09:55:36;;;;;;;8.13;3.63;;;13.50;76.50;;;;;;4992616;28;20167;-82
2021/05/19 09:58:02;;;;;;;5.80;3.77;;;13.60;78.90;;;;;;5007721;28;20181;-81
2021/05/19 10:00:29;;;;;;;9.03;3.97;;;13.50;79.80;;;;;;5012460;28;20256;-81
2021/05/19 10:02:55;;;;;;;8.37;4.70;;;13.50;78.60;;;;;;5010274;28;20289;-83
2021/05/19 10:05:35;;;;;;;7.17;4.60;;;13.70;78.50;;;;;;5005801;28;20300;-81
2021/05/19 10:08:01;;;;;;;8.43;4.70;;;13.70;77.50;;;;;;5010652;28;20178;-81
2021/05/19 10:10:27;;;;;;;8.97;4.37;;;13.80;77.10;;;;;;5012002;28;20206;-82
2021/05/19 10:12:53;;;;;;;10.60;5.40;;;13.90;74.10;;;;;;5010601;28;20289;-82
2021/05/19 10:15:24;;;;;;;11.37;6.37;;;14.00;73.80;;;;;;5011780;28;20174;-81
2021/05/19 10:18:03;;;;;;;8.40;5.40;;;14.30;71.60;;;;;;4999903;28;20171;-82
2021/05/19 10:20:36;;;;;;;9.60;5.10;;;14.20;70.30;;;;;;4990710;28;20274;-83
2021/05/19 10:23:05;;;;;;;9.43;5.07;;;14.10;69.80;;;;;;4990854;28;20176;-82
2021/05/19 10:25:42;;;;;;;6.17;2.90;;;14.00;69.80;;;;;;4990469;28;20268;-82
2021/05/19 10:28:18;;;;;;;5.90;3.00;;;14.00;65.20;;;;;;4991910;28;20180;-82
2021/05/19 10:30:51;;;;;;;6.40;3.83;;;14.20;58.90;;;;;;4990789;28;20221;-80
2021/05/19 10:33:29;;;;;;;7.10;3.40;;;14.00;58.90;;;;;;4991358;28;20187;-81
2021/05/19 10:36:22;;;;;;;7.97;4.23;;;13.90;59.80;;;;;;4991828;28;20179;-79
2021/05/19 10:38:47;;;;;;;5.80;3.90;;;14.00;59.80;;;;;;4992141;28;20276;-79
2021/05/19 10:41:13;;;;;;;9.23;4.00;;;14.30;58.70;;;;;;5006202;28;20194;-80
2021/05/19 10:43:48;;;;;;;5.87;3.40;;;14.40;51.20;;;;;;5004271;28;20179;-79
2021/05/19 10:46:17;;;;;;;8.20;4.03;;;14.40;48.60;;;;;;4992242;28;20179;-82
2021/05/19 10:48:52;;;;;;;4.80;2.93;;;14.50;54.30;;;;;;4989682;28;20270;-83
2021/05/19 10:51:44;;;;;;;5.23;3.23;;;14.50;49.00;;;;;;5002397;28;20215;-80
2021/05/19 11:00:16;;;;;;;6.30;3.10;;;14.80;42.90;;;;;;5006178;28;20263;-81
2021/05/19 11:02:54;;;;;;;4.57;3.07;;;15.00;39.30;;;;;;5009808;28;20189;-80
2021/05/19 11:05:33;;;;;;;6.27;2.60;;;15.20;36.00;;;;;;5011323;28;20233;-81
2021/05/19 11:08:08;;;;;;;6.43;2.77;;;15.30;33.20;;;;;;5011222;28;20171;-80
2021/05/19 11:10:39;;;;;;;7.53;3.07;;;15.30;27.20;;;;;;5007535;28;20213;-81
2021/05/19 11:13:06;;;;;;;6.97;3.33;;;15.40;29.50;;;;;;5000425;28;20175;-80
2021/05/19 11:21:23;;;;;;;8.43;4.70;;;15.50;1.00;;;;;;5010719;28;20178;-82
2021/05/19 11:24:11;;;;;;;8.73;3.77;;;15.60;1.00;;;;;;5010912;28;20166;-80
2021/05/19 11:26:41;;;;;;;5.70;3.87;;;15.80;1.00;;;;;;5010740;28;20186;-80
2021/05/19 11:29:08;;;;;;;6.33;4.13;;;15.70;1.00;;;;;;5011146;28;20180;-79
2021/05/19 11:31:40;;;;;;;6.33;3.83;;;15.90;1.00;;;;;;5011162;28;20259;-81
2021/05/19 11:34:06;;;;;;;6.03;3.97;;;15.80;1.00;;;;;;5000321;28;20188;-80
2021/05/19 11:36:41;;;;;;;6.27;3.80;;;15.80;1.00;;;;;;5022727;28;20178;-81
2021/05/19 11:39:34;;;;;;;8.83;4.20;;;15.80;1.00;;;;;;4990425;28;20171;-82
2021/05/19 11:42:10;;;;;;;6.43;3.80;;;16.00;1.00;;;;;;4992913;28;20291;-80
2021/05/19 11:44:38;;;;;;;5.70;3.60;;;16.20;1.00;;;;;;5000793;28;20171;-79
2021/05/19 11:47:05;;;;;;;6.37;4.07;;;16.40;1.00;;;;;;4999950;28;20182;-81
2021/05/19 11:49:31;;;;;;;5.77;3.87;;;16.50;1.00;;;;;;5001061;28;20169;-81
2021/05/19 11:51:58;;;;;;;5.97;3.87;;;16.40;1.00;;;;;;5000859;28;20310;-79
2021/05/19 11:54:24;;;;;;;7.63;5.07;;;16.60;1.00;;;;;;4999920;28;20194;-80
2021/05/19 11:56:53;;;;;;;7.37;4.70;;;16.50;1.00;;;;;;5002768;28;20194;-80
2021/05/19 11:59:24;;;;;;;10.10;5.80;;;16.60;1.00;;;;;;5011181;28;20186;-80
2021/05/19 12:01:59;;;;;;;6.90;4.30;;;16.70;1.00;;;;;;4998695;28;20207;-80
2021/05/19 12:04:28;;;;;;;5.03;3.57;;;16.60;1.00;;;;;;4999440;28;20185;-80
2021/05/19 12:06:54;;;;;;;6.17;3.53;;;16.60;1.00;;;;;;4996498;28;20178;-81
2021/05/19 12:09:22;;;;;;;5.87;3.77;;;16.80;1.00;;;;;;5013238;28;20177;-81
2021/05/19 12:11:49;;;;;;;4.57;3.30;;;16.70;1.00;;;;;;5014101;28;20674;-80
2021/05/19 12:14:15;;;;;;;5.87;3.60;;;16.40;1.00;;;;;;5013961;28;20244;-82
2021/05/19 12:16:45;;;;;;;7.67;4.73;;;16.30;1.00;;;;;;5013961;28;20748;-80
2021/05/19 12:19:16;;;;;;;6.53;3.20;;;16.00;1.00;;;;;;5014889;28;20212;-80
2021/05/19 12:21:52;;;;;;;6.13;3.50;;;15.80;1.00;;;;;;5004830;28;20185;-81
2021/05/19 12:24:27;;;;;;;5.63;3.40;;;15.80;1.00;;;;;;5014476;28;20312;-81
2021/05/19 12:26:54;;;;;;;5.27;3.10;;;16.10;1.00;;;;;;5008345;28;20186;-81
2021/05/19 12:29:40;;;;;;;4.43;2.77;;;16.00;1.00;;;;;;5014262;28;20255;-82
2021/05/19 12:32:11;;;;;;;5.40;2.47;;;15.90;1.00;;;;;;5003270;28;20236;-79
2021/05/19 12:34:38;;;;;;;3.73;2.40;;;16.10;1.00;;;;;;5008297;28;20174;-82
2021/05/19 12:37:04;;;;;;;6.43;3.00;;;16.30;1.00;;;;;;5018063;28;20178;-80
2021/05/19 12:39:31;;;;;;;4.27;2.70;;;16.50;1.00;;;;;;5016612;28;20166;-81
2021/05/19 12:41:58;;;;;;;6.03;2.97;;;16.60;1.00;;;;;;5014952;28;20187;-81
2021/05/19 12:44:32;;;;;;;5.50;2.80;;;16.80;1.00;;;;;;5003594;28;20177;-77
2021/05/19 12:47:05;;;;;;;4.57;2.70;;;16.90;1.00;;;;;;4995075;28;20171;-80
2021/05/19 12:49:32;;;;;;;5.93;2.63;;;17.00;1.00;;;;;;4995243;28;20167;-80
2021/05/19 12:52:03;;;;;;;5.80;2.17;;;17.20;1.00;;;;;;4995001;28;20212;-81
2021/05/19 12:54:36;;;;;;;2.80;2.03;;;17.10;1.00;;;;;;4993478;28;20201;-80
2021/05/19 12:57:05;;;;;;;2.77;1.33;;;17.20;1.00;;;;;;5014344;28;20704;-80
2021/05/19 12:59:49;;;;;;;2.03;1.63;;;17.30;1.00;;;;;;5014108;28;20170;-80
2021/05/19 13:02:15;;;;;;;2.70;1.67;;;17.00;1.00;;;;;;5013109;28;20200;-83
2021/05/19 13:04:49;;;;;;;2.43;1.50;;;16.50;1.00;;;;;;5014382;28;20648;-83